createdAt,value
2023-03-10T00:01:25.290Z,11.38
2023-03-10T00:03:54.097Z,11.38
2023-03-10T00:06:22.508Z,11.38
2023-03-10T00:08:49.653Z,11.41
2023-03-10T00:11:16.726Z,11.41
2023-03-10T00:13:44.092Z,11.42
2023-03-10T00:16:17.392Z,11.43
2023-03-10T00:18:45.581Z,11.44
2023-03-10T00:21:14.860Z,11.45
2023-03-10T00:23:41.771Z,11.45
2023-03-10T00:26:10.100Z,11.45
2023-03-10T00:28:37.055Z,11.44
2023-03-10T00:31:05.429Z,11.42
2023-03-10T00:33:33.316Z,11.40
2023-03-10T00:36:03.469Z,11.39
2023-03-10T00:38:30.364Z,11.39
2023-03-10T00:40:59.857Z,11.42
2023-03-10T00:43:26.829Z,11.42
2023-03-10T00:45:53.988Z,11.43
2023-03-10T00:48:21.001Z,11.43
2023-03-10T00:50:47.939Z,11.42
2023-03-10T00:53:15.362Z,11.41
2023-03-10T00:55:42.357Z,11.38
2023-03-10T00:58:09.273Z,11.38
2023-03-10T01:00:36.427Z,11.37
2023-03-10T01:03:03.385Z,11.36
2023-03-10T01:05:33.947Z,11.37
2023-03-10T01:08:00.852Z,11.37
2023-03-10T01:10:27.704Z,11.38
2023-03-10T01:12:54.623Z,11.40
2023-03-10T01:15:21.781Z,11.40
2023-03-10T01:17:48.816Z,11.44
2023-03-10T01:20:17.091Z,11.44
2023-03-10T01:22:44.215Z,11.43
2023-03-10T01:25:14.021Z,11.44
2023-03-10T01:27:41.315Z,11.39
2023-03-10T01:30:09.207Z,11.37
2023-03-10T01:32:36.138Z,11.38
2023-03-10T01:35:04.025Z,11.37
2023-03-10T01:37:31.058Z,11.38
2023-03-10T01:39:58.040Z,11.37
2023-03-10T01:42:24.920Z,11.38
2023-03-10T01:44:54.872Z,11.38
2023-03-10T01:47:21.777Z,11.37
2023-03-10T01:49:48.740Z,11.37
2023-03-10T01:52:18.502Z,11.38
2023-03-10T01:54:50.141Z,11.36
2023-03-10T01:57:19.225Z,11.33
2023-03-10T01:59:46.514Z,11.33
2023-03-10T02:02:13.826Z,11.31
2023-03-10T02:04:42.981Z,11.29
2023-03-10T02:07:10.419Z,11.26
2023-03-10T02:09:40.192Z,11.25
2023-03-10T02:12:08.043Z,11.26
2023-03-10T02:14:36.131Z,11.28
2023-03-10T02:17:05.146Z,11.28
2023-03-10T02:19:39.531Z,11.27
2023-03-10T02:22:07.796Z,11.27
2023-03-10T02:24:38.074Z,11.27
2023-03-10T02:27:08.159Z,11.26
2023-03-10T02:29:48.725Z,11.28
2023-03-10T02:32:24.212Z,11.26
2023-03-10T02:34:51.229Z,11.24
2023-03-10T02:37:19.797Z,11.27
2023-03-10T02:39:47.150Z,11.29
2023-03-10T02:42:14.024Z,11.28
2023-03-10T02:44:41.201Z,11.27
2023-03-10T02:47:08.360Z,11.26
2023-03-10T02:49:36.780Z,11.25
2023-03-10T02:52:08.030Z,11.25
2023-03-10T02:54:35.014Z,11.24
2023-03-10T02:57:01.938Z,11.22
2023-03-10T02:59:28.987Z,11.22
2023-03-10T03:01:56.016Z,11.24
2023-03-10T03:04:23.566Z,11.24
2023-03-10T03:06:50.375Z,11.25
2023-03-10T03:09:17.267Z,11.25
2023-03-10T03:11:44.272Z,11.25
2023-03-10T03:14:11.244Z,11.24
2023-03-10T03:16:38.213Z,11.20
2023-03-10T03:19:05.137Z,11.20
2023-03-10T03:21:32.099Z,11.20
2023-03-10T03:23:59.062Z,11.20
2023-03-10T03:26:27.296Z,11.21
2023-03-10T03:28:54.219Z,11.21
2023-03-10T03:31:22.555Z,11.21
2023-03-10T03:33:49.864Z,11.22
2023-03-10T03:36:16.815Z,11.21
2023-03-10T03:38:43.768Z,11.21
2023-03-10T03:41:10.717Z,11.20
2023-03-10T03:43:37.788Z,11.20
2023-03-10T03:46:05.070Z,11.22
2023-03-10T03:48:32.100Z,11.23
2023-03-10T03:50:59.060Z,11.23
2023-03-10T03:53:25.951Z,11.24
2023-03-10T03:55:52.820Z,11.24
2023-03-10T03:58:19.753Z,11.25
2023-03-10T04:00:46.593Z,11.25
2023-03-10T04:03:13.818Z,11.23
2023-03-10T04:05:40.772Z,11.24
2023-03-10T04:08:07.959Z,11.24
2023-03-10T04:10:34.894Z,11.25
2023-03-10T04:13:01.856Z,11.28
2023-03-10T04:15:28.866Z,11.26
2023-03-10T04:17:57.932Z,11.23
2023-03-10T04:20:25.456Z,11.17
2023-03-10T04:22:53.168Z,11.06
2023-03-10T04:25:20.102Z,10.86
2023-03-10T04:27:47.188Z,10.79
2023-03-10T04:30:14.547Z,10.68
2023-03-10T04:32:41.771Z,10.57
2023-03-10T04:35:09.164Z,10.46
2023-03-10T04:37:36.166Z,10.36
2023-03-10T04:40:09.560Z,10.22
2023-03-10T04:42:36.495Z,9.94
2023-03-10T04:45:03.542Z,9.83
2023-03-10T04:47:30.494Z,9.73
2023-03-10T04:49:57.462Z,9.60
2023-03-10T04:52:24.418Z,9.43
2023-03-10T04:54:51.284Z,9.32
2023-03-10T04:57:18.415Z,9.24
2023-03-10T04:59:45.389Z,9.17
2023-03-10T05:02:12.426Z,9.02
2023-03-10T05:04:39.875Z,9.00
2023-03-10T05:07:07.057Z,9.00
2023-03-10T05:09:36.335Z,8.95
2023-03-10T05:12:03.372Z,8.91
2023-03-10T05:14:30.428Z,8.94
2023-03-10T05:16:57.378Z,8.90
2023-03-10T05:19:24.340Z,8.83
2023-03-10T05:21:51.231Z,8.82
2023-03-10T05:24:18.160Z,8.84
2023-03-10T05:26:45.218Z,8.83
2023-03-10T05:29:12.252Z,8.80
2023-03-10T05:31:39.282Z,8.65
2023-03-10T05:34:06.247Z,8.58
2023-03-10T05:36:33.527Z,8.60
2023-03-10T05:39:00.822Z,8.58
2023-03-10T05:41:27.750Z,8.58
2023-03-10T05:43:54.716Z,8.58
2023-03-10T05:46:21.701Z,8.55
2023-03-10T05:48:48.590Z,8.48
2023-03-10T05:51:15.565Z,8.44
2023-03-10T05:53:42.564Z,8.42
2023-03-10T05:56:11.921Z,8.33
2023-03-10T05:58:39.241Z,8.29
2023-03-10T06:01:06.858Z,8.26
2023-03-10T06:03:34.252Z,8.24
2023-03-10T06:06:01.300Z,8.18
2023-03-10T06:08:28.398Z,8.11
2023-03-10T06:10:55.384Z,8.11
2023-03-10T06:13:22.276Z,8.06
2023-03-10T06:15:51.035Z,8.03
2023-03-10T06:18:18.624Z,8.01
2023-03-10T06:20:45.772Z,7.96
2023-03-10T06:23:12.670Z,7.92
2023-03-10T06:25:39.587Z,7.89
2023-03-10T06:28:09.512Z,7.83
2023-03-10T06:30:36.814Z,7.83
2023-03-10T06:33:03.981Z,7.77
2023-03-10T06:35:31.413Z,7.71
2023-03-10T06:37:58.309Z,7.72
2023-03-10T06:40:25.300Z,7.73
2023-03-10T06:42:52.410Z,7.72
2023-03-10T06:45:19.480Z,7.76
2023-03-10T06:47:46.750Z,7.78
2023-03-10T06:50:14.044Z,7.76
2023-03-10T06:52:42.856Z,7.77
2023-03-10T06:55:11.092Z,7.77
2023-03-10T06:57:38.195Z,7.76
2023-03-10T07:00:05.766Z,7.73
2023-03-10T07:02:32.808Z,7.74
2023-03-10T07:04:59.844Z,7.71
2023-03-10T07:07:26.710Z,7.68
2023-03-10T07:09:53.664Z,7.67
2023-03-10T07:12:20.534Z,7.70
2023-03-10T07:14:47.526Z,7.74
2023-03-10T07:17:14.653Z,7.78
2023-03-10T07:19:41.537Z,7.74
2023-03-10T07:22:11.232Z,7.72
2023-03-10T07:24:38.241Z,7.71
2023-03-10T07:27:05.411Z,7.67
2023-03-10T07:29:32.359Z,7.67
2023-03-10T07:31:59.326Z,7.63
2023-03-10T07:34:26.220Z,7.61
2023-03-10T07:36:53.241Z,7.48
2023-03-10T07:39:21.337Z,7.39
2023-03-10T07:41:48.374Z,7.29
2023-03-10T07:44:15.644Z,7.20
2023-03-10T07:46:42.667Z,7.15
2023-03-10T07:49:09.701Z,7.07
2023-03-10T07:51:36.718Z,7.02
2023-03-10T07:54:03.873Z,6.92
2023-03-10T07:56:30.808Z,6.85
2023-03-10T07:58:59.274Z,6.82
2023-03-10T08:01:26.596Z,6.83
2023-03-10T08:03:55.416Z,6.79
2023-03-10T08:06:25.934Z,6.79
2023-03-10T08:08:53.299Z,6.76
2023-03-10T08:11:20.528Z,6.69
2023-03-10T08:13:48.245Z,6.56
2023-03-10T08:16:16.683Z,6.47
2023-03-10T08:18:44.070Z,6.38
2023-03-10T08:21:11.114Z,6.35
2023-03-10T08:23:39.379Z,6.35
2023-03-10T08:26:08.431Z,6.38
2023-03-10T08:28:39.108Z,6.35
2023-03-10T08:31:09.821Z,6.32
2023-03-10T08:33:44.557Z,6.26
2023-03-10T08:36:13.128Z,6.20
2023-03-10T08:38:42.896Z,6.18
2023-03-10T08:41:11.335Z,6.17
2023-03-10T08:43:38.796Z,6.16
2023-03-10T08:46:08.553Z,6.10
2023-03-10T08:48:36.052Z,6.07
2023-03-10T08:51:03.215Z,6.07
2023-03-10T08:53:30.206Z,6.05
2023-03-10T08:55:57.179Z,6.04
2023-03-10T08:58:24.903Z,5.95
2023-03-10T09:00:52.530Z,5.83
2023-03-10T09:03:19.800Z,5.75
2023-03-10T09:05:47.615Z,5.64
2023-03-10T09:08:14.909Z,5.66
2023-03-10T09:10:43.328Z,5.52
2023-03-10T09:13:13.969Z,5.37
2023-03-10T09:15:41.694Z,5.26
2023-03-10T09:18:09.432Z,5.14
2023-03-10T09:20:36.758Z,5.09
2023-03-10T09:23:04.167Z,5.08
2023-03-10T09:25:31.369Z,4.97
2023-03-10T09:27:58.481Z,4.90
2023-03-10T09:30:25.840Z,4.79
2023-03-10T09:32:52.831Z,4.83
2023-03-10T09:35:20.022Z,4.84
2023-03-10T09:37:47.223Z,4.92
2023-03-10T09:40:18.053Z,4.94
2023-03-10T09:42:46.560Z,4.98
2023-03-10T09:45:17.972Z,4.97
2023-03-10T09:47:50.422Z,5.02
2023-03-10T09:50:20.455Z,5.08
2023-03-10T09:52:51.617Z,5.07
2023-03-10T09:55:20.838Z,5.15
2023-03-10T09:57:50.345Z,5.06
2023-03-10T10:00:22.216Z,5.11
2023-03-10T10:02:50.588Z,5.20
2023-03-10T10:05:20.860Z,5.28
2023-03-10T10:07:51.053Z,5.39
2023-03-10T10:10:20.417Z,5.42
2023-03-10T10:12:50.500Z,5.49
2023-03-10T10:15:19.397Z,5.52
2023-03-10T10:17:56.759Z,5.44
2023-03-10T10:20:32.837Z,5.56
2023-03-10T10:22:59.956Z,5.58
2023-03-10T10:25:31.625Z,5.44
2023-03-10T10:27:59.396Z,5.57
2023-03-10T10:30:29.557Z,5.56
2023-03-10T10:32:58.108Z,5.63
2023-03-10T10:35:27.431Z,5.60
2023-03-10T10:37:57.445Z,5.61
2023-03-10T10:40:26.356Z,5.77
2023-03-10T10:42:54.601Z,5.90
2023-03-10T10:45:25.908Z,6.04
2023-03-10T10:47:52.926Z,6.21
2023-03-10T10:50:20.343Z,6.14
2023-03-10T10:52:50.206Z,6.23
2023-03-10T10:55:20.357Z,6.28
2023-03-10T10:57:53.934Z,6.17
2023-03-10T11:00:25.444Z,6.16
2023-03-10T11:02:53.793Z,6.15
2023-03-10T11:05:24.285Z,6.18
2023-03-10T11:07:51.430Z,6.26
2023-03-10T11:10:18.951Z,6.21
2023-03-10T11:12:48.989Z,6.20
2023-03-10T11:15:16.354Z,6.25
2023-03-10T11:17:43.770Z,6.26
2023-03-10T11:20:13.913Z,6.13
2023-03-10T11:22:43.987Z,6.21
2023-03-10T11:25:17.624Z,6.23
2023-03-10T11:27:47.740Z,6.33
2023-03-10T11:30:18.025Z,6.28
2023-03-10T11:32:48.074Z,6.19
2023-03-10T11:35:18.338Z,6.20
2023-03-10T11:37:47.801Z,6.10
2023-03-10T11:40:20.115Z,6.11
2023-03-10T11:42:49.439Z,6.14
2023-03-10T11:45:21.075Z,6.06
2023-03-10T11:47:51.062Z,6.05
2023-03-10T11:50:21.080Z,6.03
2023-03-10T11:52:48.625Z,6.09
2023-03-10T11:55:20.524Z,6.13
2023-03-10T11:57:49.279Z,6.15
2023-03-10T12:00:21.741Z,6.20
2023-03-10T12:02:56.263Z,6.20
2023-03-10T12:05:25.177Z,6.22
2023-03-10T12:07:54.096Z,6.25
2023-03-10T12:10:22.259Z,6.25
2023-03-10T12:12:50.346Z,6.26
2023-03-10T12:15:17.883Z,6.33
2023-03-10T12:17:46.184Z,6.35
2023-03-10T12:20:13.562Z,6.39
2023-03-10T12:22:43.956Z,6.45
2023-03-10T12:25:14.005Z,6.58
2023-03-10T12:28:01.438Z,6.57
2023-03-10T12:30:31.526Z,6.64
2023-03-10T12:32:58.504Z,6.71
2023-03-10T12:35:28.599Z,6.81
2023-03-10T12:37:58.896Z,6.94
2023-03-10T12:40:33.569Z,6.99
2023-03-10T12:43:20.408Z,6.97
2023-03-10T12:45:47.896Z,6.97
2023-03-10T12:48:18.641Z,7.01
2023-03-10T12:50:48.984Z,6.95
2023-03-10T12:53:19.080Z,6.98
2023-03-10T12:56:05.633Z,6.99
2023-03-10T12:58:33.652Z,7.05
2023-03-10T13:01:04.381Z,7.06
2023-03-10T13:03:35.688Z,7.11
2023-03-10T13:06:06.003Z,7.15
2023-03-10T13:08:36.174Z,7.24
2023-03-10T13:11:03.684Z,7.28
2023-03-10T13:13:33.605Z,7.30
2023-03-10T13:16:01.701Z,7.32
2023-03-10T13:18:28.786Z,7.37
2023-03-10T13:20:55.800Z,7.40
2023-03-10T13:23:23.193Z,7.37
2023-03-10T13:25:53.347Z,7.38
2023-03-10T13:28:20.321Z,7.40
2023-03-10T13:30:47.724Z,7.45
2023-03-10T13:33:17.951Z,7.44
2023-03-10T13:35:47.707Z,7.47
2023-03-10T13:38:18.207Z,7.53
2023-03-10T13:40:47.875Z,7.59
2023-03-10T13:43:18.045Z,7.66
2023-03-10T13:45:45.140Z,7.60
2023-03-10T13:48:14.108Z,7.61
2023-03-10T13:50:41.268Z,7.49
2023-03-10T13:53:24.720Z,7.46
2023-03-10T13:55:52.083Z,7.49
2023-03-10T13:58:19.175Z,7.47
2023-03-10T14:00:50.892Z,7.44
2023-03-10T14:03:18.347Z,7.40
2023-03-10T14:05:47.656Z,7.39
2023-03-10T14:08:17.664Z,7.42
2023-03-10T14:10:44.726Z,7.46
2023-03-10T14:13:14.786Z,7.50
2023-03-10T14:15:52.803Z,7.52
2023-03-10T14:18:19.973Z,7.55
2023-03-10T14:20:47.825Z,7.56
2023-03-10T14:23:17.861Z,7.60
2023-03-10T14:25:45.676Z,7.66
2023-03-10T14:30:42.116Z,7.77
2023-03-10T14:33:12.265Z,7.70
2023-03-10T14:35:40.318Z,7.71
2023-03-10T14:38:07.600Z,7.71
2023-03-10T14:40:39.042Z,7.71
2023-03-10T14:43:06.339Z,7.83
2023-03-10T14:45:35.261Z,7.92
2023-03-10T14:48:05.438Z,7.96
2023-03-10T14:50:33.700Z,8.01
2023-03-10T14:53:00.785Z,7.97
2023-03-10T14:55:28.175Z,7.94
2023-03-10T14:57:59.065Z,7.93
2023-03-10T15:00:26.214Z,7.87
2023-03-10T15:02:53.463Z,7.83
2023-03-10T15:05:22.285Z,7.80
2023-03-10T15:07:49.276Z,7.82
2023-03-10T15:10:16.894Z,7.86
2023-03-10T15:12:44.388Z,7.91
2023-03-10T15:15:14.626Z,7.89
2023-03-10T15:17:41.726Z,7.90
2023-03-10T15:20:14.543Z,7.79
2023-03-10T15:22:41.480Z,7.74
2023-03-10T15:25:08.780Z,7.72
2023-03-10T15:27:35.844Z,7.71
2023-03-10T15:30:02.939Z,7.72
2023-03-10T15:32:30.189Z,7.73
2023-03-10T15:34:57.181Z,7.83
2023-03-10T15:37:24.225Z,7.90
2023-03-10T15:39:51.280Z,7.90
2023-03-10T15:42:18.326Z,7.86
2023-03-10T15:44:48.294Z,7.86
2023-03-10T15:47:15.497Z,7.94
2023-03-10T15:49:42.469Z,7.94
2023-03-10T15:52:09.383Z,7.95
2023-03-10T15:54:36.443Z,7.96
2023-03-10T15:57:03.684Z,7.95
2023-03-10T15:59:30.681Z,7.93
2023-03-10T16:01:58.071Z,7.93
2023-03-10T16:04:25.205Z,7.89
2023-03-10T16:06:52.620Z,7.85
2023-03-10T16:09:19.704Z,7.87
2023-03-10T16:11:46.791Z,7.88
2023-03-10T16:14:13.917Z,7.89
2023-03-10T16:16:40.927Z,7.90
2023-03-10T16:19:08.377Z,7.89
2023-03-10T16:21:35.488Z,7.87
2023-03-10T16:24:02.790Z,7.88
2023-03-10T16:26:30.014Z,7.88
2023-03-10T16:28:57.174Z,7.86
2023-03-10T16:31:25.331Z,7.83
2023-03-10T16:33:52.680Z,7.85
2023-03-10T16:36:22.382Z,7.83
2023-03-10T16:38:50.207Z,7.83
2023-03-10T16:41:17.416Z,7.79
2023-03-10T16:43:44.413Z,7.78
2023-03-10T16:46:13.216Z,7.78
2023-03-10T16:48:42.659Z,7.80
2023-03-10T16:51:18.573Z,7.80
2023-03-10T16:53:45.721Z,7.80
2023-03-10T16:56:12.875Z,7.79
2023-03-10T16:58:40.065Z,7.77
2023-03-10T17:01:07.156Z,7.77
2023-03-10T17:03:39.797Z,7.76
2023-03-10T17:06:08.312Z,7.70
2023-03-10T17:08:35.564Z,7.67
2023-03-10T17:11:02.552Z,7.66
2023-03-10T17:13:30.136Z,7.58
2023-03-10T17:15:57.867Z,7.52
2023-03-10T17:18:25.377Z,7.42
2023-03-10T17:20:52.379Z,7.39
2023-03-10T17:23:19.516Z,7.39
2023-03-10T17:25:46.528Z,7.42
2023-03-10T17:28:13.684Z,7.44
2023-03-10T17:30:41.560Z,7.40
2023-03-10T17:33:08.799Z,7.42
2023-03-10T17:35:36.875Z,7.42
2023-03-10T17:38:03.973Z,7.42
2023-03-10T17:40:30.963Z,7.40
2023-03-10T17:42:59.989Z,7.36
2023-03-10T17:45:39.982Z,7.34
2023-03-10T17:48:07.340Z,7.30
2023-03-10T17:50:34.359Z,7.30
2023-03-10T17:53:01.345Z,7.32
2023-03-10T17:55:28.505Z,7.28
2023-03-10T17:57:55.500Z,7.26
2023-03-10T18:00:22.922Z,7.26
2023-03-10T18:02:49.881Z,7.28
2023-03-10T18:05:16.935Z,7.23
2023-03-10T18:07:43.891Z,7.22
2023-03-10T18:10:11.595Z,7.17
2023-03-10T18:12:38.564Z,7.11
2023-03-10T18:15:06.343Z,7.08
2023-03-10T18:17:33.238Z,7.04
2023-03-10T18:20:01.580Z,6.98
2023-03-10T18:22:28.649Z,6.95
2023-03-10T18:24:57.680Z,6.94
2023-03-10T18:27:24.800Z,6.89
2023-03-10T18:29:51.779Z,6.88
2023-03-10T18:32:19.276Z,6.86
2023-03-10T18:34:46.423Z,6.83
2023-03-10T18:37:13.497Z,6.82
2023-03-10T18:39:41.463Z,6.79
2023-03-10T18:42:08.660Z,6.78
2023-03-10T18:44:35.607Z,6.76
2023-03-10T18:47:02.745Z,6.72
2023-03-10T18:49:29.926Z,6.72
2023-03-10T18:51:56.768Z,6.72
2023-03-10T18:54:23.666Z,6.71
2023-03-10T18:56:50.786Z,6.70
2023-03-10T18:59:19.321Z,6.69
2023-03-10T19:01:46.321Z,6.68
2023-03-10T19:04:13.417Z,6.65
2023-03-10T19:06:40.342Z,6.63
2023-03-10T19:09:09.043Z,6.61
2023-03-10T19:11:37.301Z,6.58
2023-03-10T19:14:05.820Z,6.56
2023-03-10T19:16:33.510Z,6.50
2023-03-10T19:19:00.537Z,6.47
2023-03-10T19:21:27.575Z,6.44
2023-03-10T19:23:54.459Z,6.43
2023-03-10T19:26:21.356Z,6.41
2023-03-10T19:28:48.189Z,6.41
2023-03-10T19:31:15.532Z,6.38
2023-03-10T19:33:42.614Z,6.38
2023-03-10T19:36:11.977Z,6.35
2023-03-10T19:38:39.633Z,6.36
2023-03-10T19:41:10.385Z,6.35
2023-03-10T19:43:37.697Z,6.33
2023-03-10T19:46:06.131Z,6.30
2023-03-10T19:48:33.361Z,6.30
2023-03-10T19:51:00.468Z,6.26
2023-03-10T19:53:28.579Z,6.24
2023-03-10T19:55:56.595Z,6.23
2023-03-10T19:58:24.245Z,6.21
2023-03-10T20:00:52.446Z,6.21
2023-03-10T20:03:19.839Z,6.20
2023-03-10T20:05:48.064Z,6.18
2023-03-10T20:08:14.988Z,6.17
2023-03-10T20:10:42.123Z,6.15
2023-03-10T20:13:08.937Z,6.14
2023-03-10T20:15:36.264Z,6.11
2023-03-10T20:18:03.316Z,6.10
2023-03-10T20:20:30.295Z,6.09
2023-03-10T20:22:57.170Z,6.08
2023-03-10T20:25:24.854Z,6.08
2023-03-10T20:27:52.849Z,6.06
2023-03-10T20:30:20.224Z,6.07
2023-03-10T20:32:47.129Z,6.07
2023-03-10T20:35:14.665Z,6.06
2023-03-10T20:37:42.198Z,6.07
2023-03-10T20:40:12.026Z,6.08
2023-03-10T20:42:39.631Z,6.10
2023-03-10T20:45:07.970Z,6.08
2023-03-10T20:47:34.844Z,6.06
2023-03-10T20:50:04.096Z,6.04
2023-03-10T20:52:33.558Z,5.99
2023-03-10T20:55:00.568Z,5.97
2023-03-10T20:57:27.394Z,5.96
2023-03-10T20:59:55.940Z,5.95
2023-03-10T21:02:22.737Z,5.95
2023-03-10T21:04:49.708Z,5.94
2023-03-10T21:07:16.892Z,5.94
2023-03-10T21:09:45.416Z,5.95
2023-03-10T21:12:13.857Z,5.96
2023-03-10T21:14:40.637Z,5.97
2023-03-10T21:17:07.476Z,5.97
2023-03-10T21:19:34.488Z,5.96
2023-03-10T21:22:03.368Z,5.97
2023-03-10T21:24:30.489Z,5.95
2023-03-10T21:26:57.335Z,5.95
2023-03-10T21:29:24.257Z,5.98
2023-03-10T21:31:51.152Z,5.99
2023-03-10T21:34:18.208Z,6.01
2023-03-10T21:36:45.108Z,6.01
2023-03-10T21:39:13.202Z,6.01
2023-03-10T21:41:40.072Z,6.00
2023-03-10T21:44:07.764Z,5.99
2023-03-10T21:46:34.734Z,5.97
2023-03-10T21:49:01.835Z,5.91
2023-03-10T21:51:28.735Z,5.87
2023-03-10T21:53:55.999Z,5.83
2023-03-10T21:56:26.087Z,5.79
2023-03-10T21:58:53.139Z,5.78
2023-03-10T22:01:20.178Z,5.76
2023-03-10T22:03:46.942Z,5.76
2023-03-10T22:06:13.895Z,5.74
2023-03-10T22:08:41.018Z,5.70
2023-03-10T22:11:08.500Z,5.70
2023-03-10T22:13:36.173Z,5.70
2023-03-10T22:16:04.143Z,5.65
2023-03-10T22:18:31.256Z,5.64
2023-03-10T22:20:58.417Z,5.65
2023-03-10T22:23:25.665Z,5.68
2023-03-10T22:25:52.451Z,5.71
2023-03-10T22:28:19.258Z,5.75
2023-03-10T22:30:46.088Z,5.78
2023-03-10T22:33:13.042Z,5.77
2023-03-10T22:35:40.325Z,5.78
2023-03-10T22:38:07.224Z,5.78
2023-03-10T22:40:34.051Z,5.78
2023-03-10T22:43:00.874Z,5.77
2023-03-10T22:45:29.037Z,5.75
2023-03-10T22:47:59.266Z,5.76
2023-03-10T22:50:27.733Z,5.76
2023-03-10T22:52:54.797Z,5.76
2023-03-10T22:55:24.805Z,5.77
2023-03-10T22:57:52.471Z,5.73
2023-03-10T23:00:20.811Z,5.73
2023-03-10T23:02:48.367Z,5.72
2023-03-10T23:05:16.250Z,5.72
2023-03-10T23:07:43.728Z,5.73
2023-03-10T23:10:14.798Z,5.76
2023-03-10T23:12:41.670Z,5.79
2023-03-10T23:15:15.409Z,5.80
2023-03-10T23:17:49.376Z,5.79
2023-03-10T23:20:16.796Z,5.75
2023-03-10T23:22:45.174Z,5.77
2023-03-10T23:25:15.166Z,5.77
2023-03-10T23:27:42.081Z,5.77
2023-03-10T23:30:13.894Z,5.74
2023-03-10T23:32:41.693Z,5.66
2023-03-10T23:35:10.466Z,5.64
2023-03-10T23:37:37.225Z,5.61
2023-03-10T23:40:09.928Z,5.54
2023-03-10T23:42:37.531Z,5.51
2023-03-10T23:45:06.760Z,5.43
2023-03-10T23:47:34.767Z,5.40
2023-03-10T23:50:01.993Z,5.36
2023-03-10T23:52:28.783Z,5.33
2023-03-10T23:54:55.584Z,5.36
2023-03-10T23:57:22.405Z,5.41
2023-03-10T23:59:49.250Z,5.43
